Time;durP1;ratioP1;P1;durP2;ratioP2;P2;SDS_P1;SDS_P2;PMS_P1;PMS_P2;Temp;Humidity;BMP_temperature;BMP_pressure;BME280_temperature;BME280_humidity;BME280_pressure;Samples;Min_cycle;Max_cycle;Signal;HPM_P1;HPM_P2
2023/05/21 14:37:17;;;;;;;6.45;4.57;;;24.10;99.90;;;;;;5048813;23;20231;-77
2023/05/21 14:39:45;;;;;;;7.03;5.30;;;24.00;99.90;;;;;;4916623;29;20218;-75
2023/05/21 14:42:12;;;;;;;6.53;4.95;;;24.10;99.90;;;;;;4918711;29;20269;-76
2023/05/21 14:44:39;;;;;;;9.10;5.32;;;24.20;99.90;;;;;;4918178;29;20316;-75
2023/05/21 14:47:05;;;;;;;7.07;4.82;;;24.20;99.90;;;;;;4918377;29;20209;-75
2023/05/21 14:49:33;;;;;;;7.78;5.13;;;24.40;99.90;;;;;;4918794;29;20328;-75
2023/05/21 14:51:59;;;;;;;6.55;4.90;;;24.30;99.90;;;;;;4918820;29;20209;-75
2023/05/21 14:54:26;;;;;;;9.55;5.22;;;24.30;99.90;;;;;;4918674;29;20293;-75
2023/05/21 14:56:54;;;;;;;7.00;5.28;;;24.30;99.90;;;;;;4918820;29;20300;-75
2023/05/21 14:59:21;;;;;;;7.20;4.93;;;24.60;99.90;;;;;;4919009;29;20209;-75
2023/05/21 15:01:48;;;;;;;8.10;5.10;;;24.90;99.90;;;;;;4918817;29;20228;-75
2023/05/21 15:04:15;;;;;;;9.65;5.57;;;24.90;99.90;;;;;;4918715;29;20272;-75
2023/05/21 15:06:42;;;;;;;6.65;4.65;;;25.00;99.90;;;;;;4918690;29;20226;-75
2023/05/21 15:09:09;;;;;;;8.20;5.32;;;25.00;99.90;;;;;;4918565;29;20814;-75
2023/05/21 15:11:36;;;;;;;7.32;4.75;;;24.70;99.90;;;;;;4919038;29;20313;-74
2023/05/21 15:14:04;;;;;;;8.05;4.80;;;24.40;99.90;;;;;;4918657;29;20272;-75
2023/05/21 15:16:31;;;;;;;7.05;4.00;;;24.00;99.90;;;;;;4918388;29;20244;-75
2023/05/21 15:18:58;;;;;;;6.72;4.07;;;24.00;99.90;;;;;;4918238;29;20241;-75
2023/05/21 15:21:25;;;;;;;6.68;4.53;;;24.00;99.90;;;;;;4918494;29;20724;-75
2023/05/21 15:23:51;;;;;;;7.55;4.97;;;24.30;99.90;;;;;;4918177;29;20623;-75
2023/05/21 15:26:18;;;;;;;6.97;4.93;;;24.30;99.90;;;;;;4918291;29;20245;-75
2023/05/21 15:28:45;;;;;;;8.68;4.47;;;24.40;99.90;;;;;;4918147;29;20325;-75
2023/05/21 15:31:13;;;;;;;9.20;4.78;;;24.50;99.90;;;;;;4918306;29;20210;-74
2023/05/21 15:33:40;;;;;;;5.97;4.03;;;24.60;99.90;;;;;;4917987;29;20252;-75
2023/05/21 15:36:08;;;;;;;8.00;4.85;;;24.50;99.90;;;;;;4918207;29;20296;-75
2023/05/21 15:38:35;;;;;;;7.38;4.75;;;24.50;99.90;;;;;;4917188;29;20256;-75
2023/05/21 15:41:02;;;;;;;7.03;4.80;;;24.60;99.90;;;;;;4918085;29;20244;-75
2023/05/21 15:43:29;;;;;;;6.32;4.68;;;24.70;99.90;;;;;;4918031;29;20244;-75
2023/05/21 15:45:55;;;;;;;7.80;4.60;;;24.60;99.90;;;;;;4917371;29;20229;-75
2023/05/21 15:48:24;;;;;;;6.65;4.75;;;24.60;99.90;;;;;;4917514;29;20237;-75
2023/05/21 15:50:51;;;;;;;8.32;5.03;;;24.60;99.90;;;;;;4918231;29;20264;-75
2023/05/21 15:53:17;;;;;;;7.10;4.80;;;24.60;99.90;;;;;;4917793;29;20252;-75
2023/05/21 15:55:44;;;;;;;6.82;4.25;;;24.50;99.90;;;;;;4917714;29;20321;-75
2023/05/21 15:58:11;;;;;;;6.47;4.63;;;24.50;99.90;;;;;;4917589;29;20209;-75
2023/05/21 16:00:38;;;;;;;6.70;4.72;;;24.40;99.90;;;;;;4917898;29;20233;-76
2023/05/21 16:03:05;;;;;;;7.15;4.97;;;24.30;99.90;;;;;;4917689;29;20707;-75
2023/05/21 16:05:33;;;;;;;7.00;5.07;;;24.30;99.90;;;;;;4917266;29;20669;-75
2023/05/21 16:08:00;;;;;;;7.55;4.88;;;24.20;99.90;;;;;;4916954;29;20648;-75
2023/05/21 16:10:27;;;;;;;6.40;4.57;;;24.20;99.90;;;;;;4917004;29;20329;-75
2023/05/21 16:12:54;;;;;;;7.18;5.15;;;24.20;99.90;;;;;;4917465;29;20248;-75
2023/05/21 16:15:21;;;;;;;8.13;5.30;;;24.10;99.90;;;;;;4917275;29;20764;-75
2023/05/21 16:17:48;;;;;;;6.75;4.70;;;24.10;99.90;;;;;;4917644;29;20260;-75
2023/05/21 16:20:17;;;;;;;7.53;4.95;;;24.10;99.90;;;;;;4917693;29;20273;-75
2023/05/21 16:22:45;;;;;;;8.43;5.18;;;24.00;99.90;;;;;;4917732;29;20206;-75
2023/05/21 16:25:12;;;;;;;8.00;5.00;;;23.80;99.90;;;;;;4917161;29;20229;-75
2023/05/21 16:27:39;;;;;;;8.00;4.80;;;23.80;99.90;;;;;;4917173;29;20300;-75
2023/05/21 16:30:08;;;;;;;7.13;4.97;;;23.70;99.90;;;;;;4916983;29;20332;-74
2023/05/21 16:32:35;;;;;;;7.68;5.15;;;23.70;99.90;;;;;;4917625;29;20220;-74
2023/05/21 16:35:02;;;;;;;8.80;4.95;;;23.70;99.90;;;;;;4917327;29;20316;-75
2023/05/21 16:37:28;;;;;;;8.82;5.03;;;23.80;99.90;;;;;;4917174;29;20276;-75
2023/05/21 16:39:57;;;;;;;6.45;4.32;;;23.60;99.90;;;;;;4916995;29;20254;-75
2023/05/21 16:42:23;;;;;;;6.35;4.65;;;23.60;99.90;;;;;;4917218;29;20288;-75
2023/05/21 16:44:50;;;;;;;6.40;4.57;;;23.60;99.90;;;;;;4917066;29;20312;-75
2023/05/21 16:47:17;;;;;;;6.72;4.47;;;23.70;99.90;;;;;;4916785;29;20248;-75
2023/05/21 16:49:44;;;;;;;7.53;4.63;;;23.80;99.90;;;;;;4916779;29;20324;-75
2023/05/21 16:52:11;;;;;;;5.03;4.30;;;23.80;99.90;;;;;;4916561;29;20213;-75
2023/05/21 16:54:38;;;;;;;6.18;4.32;;;23.80;99.90;;;;;;4915973;29;20234;-75
2023/05/21 16:57:07;;;;;;;6.55;4.50;;;23.80;99.90;;;;;;4916889;29;20245;-75
2023/05/21 16:59:34;;;;;;;7.95;4.82;;;23.80;99.90;;;;;;4911401;29;20292;-73
2023/05/21 17:02:01;;;;;;;6.20;4.22;;;23.80;99.90;;;;;;4917670;29;20213;-74
2023/05/21 17:04:27;;;;;;;6.35;4.05;;;23.90;99.90;;;;;;4920329;29;20620;-74
2023/05/21 17:06:54;;;;;;;6.95;4.40;;;23.70;99.90;;;;;;4935114;29;20295;-75
2023/05/21 17:09:21;;;;;;;6.47;4.28;;;23.70;99.90;;;;;;4922160;29;20277;-75
2023/05/21 17:11:48;;;;;;;5.72;4.00;;;23.60;99.90;;;;;;4916305;29;20247;-74
2023/05/21 17:14:17;;;;;;;7.00;4.40;;;23.50;99.90;;;;;;4916142;29;20260;-74
2023/05/21 17:16:43;;;;;;;9.02;4.45;;;23.50;99.90;;;;;;4920922;29;20240;-74
2023/05/21 17:19:10;;;;;;;6.18;4.22;;;23.50;99.90;;;;;;4934671;29;20295;-76
2023/05/21 17:21:37;;;;;;;6.60;4.40;;;23.50;99.90;;;;;;4935176;29;20213;-75
2023/05/21 17:24:05;;;;;;;6.88;3.97;;;23.40;99.90;;;;;;4934691;29;20789;-75
2023/05/21 17:26:32;;;;;;;7.78;3.78;;;23.30;99.90;;;;;;4935332;29;20228;-75
2023/05/21 17:28:59;;;;;;;8.73;4.53;;;23.50;99.90;;;;;;4934838;29;20324;-75
2023/05/21 17:31:28;;;;;;;5.47;3.80;;;23.40;99.90;;;;;;4935010;29;20631;-75
2023/05/21 17:33:55;;;;;;;5.63;4.05;;;23.40;99.90;;;;;;4934924;29;20212;-76
2023/05/21 17:36:22;;;;;;;6.65;4.43;;;23.50;99.90;;;;;;4934830;29;20771;-76
2023/05/21 17:38:49;;;;;;;6.38;4.07;;;23.50;99.90;;;;;;4934723;29;20255;-74
2023/05/21 17:41:18;;;;;;;6.25;4.38;;;23.50;99.90;;;;;;4935007;29;20272;-74
2023/05/21 17:43:45;;;;;;;9.98;4.07;;;23.50;99.90;;;;;;4934861;29;20221;-75
2023/05/21 17:46:15;;;;;;;7.47;4.15;;;23.50;99.90;;;;;;4935309;29;20252;-74
2023/05/21 17:48:43;;;;;;;6.10;4.00;;;23.40;99.90;;;;;;4935397;29;20208;-74
2023/05/21 17:51:11;;;;;;;6.53;4.75;;;23.30;99.90;;;;;;4935424;29;20236;-75
2023/05/21 17:53:38;;;;;;;5.75;4.00;;;23.30;99.90;;;;;;4935320;29;20572;-74
2023/05/21 17:56:05;;;;;;;5.95;4.07;;;23.40;99.90;;;;;;4928347;29;20300;-74
2023/05/21 17:58:32;;;;;;;7.10;4.10;;;23.40;99.90;;;;;;4912791;29;20298;-72
2023/05/21 18:00:59;;;;;;;8.10;4.32;;;23.40;99.90;;;;;;4916508;29;20241;-73
2023/05/21 18:03:26;;;;;;;5.32;3.47;;;23.30;99.90;;;;;;4935633;29;20688;-75
2023/05/21 18:05:54;;;;;;;6.30;3.10;;;23.30;99.90;;;;;;4942985;29;20322;-74
2023/05/21 18:08:21;;;;;;;6.93;3.22;;;23.20;99.90;;;;;;4923322;29;20248;-74
2023/05/21 18:10:48;;;;;;;6.55;3.58;;;23.00;99.90;;;;;;4921243;29;20328;-74
2023/05/21 18:13:15;;;;;;;5.43;2.95;;;22.90;99.90;;;;;;4923991;29;20240;-73
2023/05/21 18:15:42;;;;;;;6.20;2.95;;;23.00;99.90;;;;;;4932769;29;20320;-75
2023/05/21 18:18:16;;;;;;;4.72;2.90;;;22.80;99.90;;;;;;4921197;29;20739;-73
2023/05/21 18:20:44;;;;;;;7.80;3.00;;;22.80;99.90;;;;;;4921207;29;20209;-73
2023/05/21 18:23:12;;;;;;;6.70;2.83;;;22.70;99.90;;;;;;4919056;29;20225;-74
2023/05/21 18:25:39;;;;;;;4.32;2.83;;;22.70;99.90;;;;;;4899956;29;20269;-73
2023/05/21 18:28:06;;;;;;;3.95;2.35;;;22.50;99.90;;;;;;4899496;29;20297;-73
2023/05/21 18:30:34;;;;;;;7.57;3.30;;;22.40;99.90;;;;;;4899459;29;20349;-73
2023/05/21 18:33:01;;;;;;;4.93;3.15;;;22.20;99.90;;;;;;4914608;29;20743;-73
2023/05/21 18:35:29;;;;;;;6.80;3.10;;;22.10;99.90;;;;;;4917893;29;20240;-74
2023/05/21 18:37:57;;;;;;;5.57;2.90;;;22.00;99.90;;;;;;4918566;29;20218;-74
2023/05/21 18:40:26;;;;;;;6.70;3.33;;;21.90;99.90;;;;;;4917701;29;20237;-74
2023/05/21 18:42:53;;;;;;;4.40;3.10;;;21.80;99.90;;;;;;4917276;29;20221;-74
2023/05/21 18:45:20;;;;;;;6.53;3.00;;;21.80;99.90;;;;;;4918381;29;20289;-74
2023/05/21 18:47:47;;;;;;;6.07;2.92;;;21.70;99.90;;;;;;4912305;29;20696;-73
2023/05/21 18:50:15;;;;;;;9.82;4.35;;;21.70;99.90;;;;;;4911363;29;20285;-76
2023/05/21 18:52:42;;;;;;;5.68;3.22;;;21.50;99.90;;;;;;4911902;29;20244;-77
2023/05/21 18:55:09;;;;;;;8.13;3.03;;;21.50;99.90;;;;;;4906436;29;20313;-77
2023/05/21 18:57:38;;;;;;;5.78;3.08;;;21.30;99.90;;;;;;4914174;29;20241;-78
2023/05/21 19:00:08;;;;;;;7.20;2.55;;;21.10;99.90;;;;;;4906994;29;20214;-80
2023/05/21 19:02:35;;;;;;;7.57;3.28;;;21.10;99.90;;;;;;4910801;29;20313;-77
2023/05/21 19:05:02;;;;;;;7.05;3.08;;;20.80;99.90;;;;;;4919643;29;20253;-83
2023/05/21 19:07:29;;;;;;;7.13;2.70;;;20.70;99.90;;;;;;4912063;29;20264;-83
2023/05/21 19:09:56;;;;;;;5.38;2.80;;;20.60;99.90;;;;;;4916540;29;20242;-78
2023/05/21 19:12:23;;;;;;;5.38;2.95;;;20.60;99.90;;;;;;4914823;29;20214;-78
2023/05/21 19:14:51;;;;;;;6.50;3.20;;;20.50;99.90;;;;;;4914391;29;20257;-77
2023/05/21 19:17:18;;;;;;;7.53;2.78;;;20.50;99.90;;;;;;4909764;29;20218;-82
2023/05/21 19:19:45;;;;;;;5.90;2.35;;;20.50;99.90;;;;;;4912607;29;20234;-79
2023/05/21 19:22:12;;;;;;;5.20;2.90;;;20.30;99.90;;;;;;4917622;29;20210;-75
2023/05/21 19:24:40;;;;;;;5.00;2.50;;;20.20;99.90;;;;;;4914866;29;20260;-81
2023/05/21 19:27:07;;;;;;;4.30;2.58;;;20.10;99.90;;;;;;4918586;29;20209;-77
2023/05/21 19:29:34;;;;;;;5.22;2.95;;;19.90;99.90;;;;;;4918128;29;20296;-80
2023/05/21 19:32:02;;;;;;;4.10;2.90;;;19.80;99.90;;;;;;4905893;29;20245;-78
2023/05/21 19:34:29;;;;;;;6.47;2.95;;;19.80;99.90;;;;;;4911864;29;20268;-79
2023/05/21 19:36:56;;;;;;;9.50;2.95;;;19.90;99.90;;;;;;4918128;29;20221;-77
2023/05/21 19:39:23;;;;;;;7.93;3.03;;;19.90;99.90;;;;;;4912978;29;20265;-77
2023/05/21 19:41:50;;;;;;;7.53;2.80;;;19.80;99.90;;;;;;4919633;29;20240;-77
2023/05/21 19:44:17;;;;;;;4.90;2.78;;;19.70;99.90;;;;;;4910972;29;20237;-83
2023/05/21 19:46:44;;;;;;;5.95;3.17;;;19.60;99.90;;;;;;4909148;29;20248;-78
2023/05/21 19:49:14;;;;;;;6.55;2.60;;;19.50;99.90;;;;;;4916895;29;20241;-80
2023/05/21 19:51:41;;;;;;;7.80;2.80;;;19.30;99.90;;;;;;4919953;29;20324;-76
2023/05/21 19:54:08;;;;;;;6.10;2.40;;;19.30;99.90;;;;;;4918341;29;20226;-76
2023/05/21 19:56:35;;;;;;;6.37;2.63;;;19.20;99.90;;;;;;4919397;29;20233;-75
2023/05/21 19:59:02;;;;;;;5.70;3.03;;;19.00;99.90;;;;;;4917339;29;20209;-77
2023/05/21 20:01:34;;;;;;;9.17;3.83;;;18.90;99.90;;;;;;4927172;29;20214;-76
2023/05/21 20:04:01;;;;;;;5.53;2.47;;;18.90;99.90;;;;;;4914539;29;20756;-76
2023/05/21 20:06:30;;;;;;;5.30;2.37;;;18.90;99.90;;;;;;4911703;29;20696;-77
2023/05/21 20:08:57;;;;;;;5.97;2.50;;;18.80;99.90;;;;;;4916750;29;20606;-76
2023/05/21 20:11:24;;;;;;;6.90;2.57;;;18.70;99.90;;;;;;4911658;29;20266;-76
2023/05/21 20:13:52;;;;;;;8.97;2.50;;;18.50;99.90;;;;;;4917223;29;20248;-76
2023/05/21 20:16:20;;;;;;;6.87;2.33;;;18.40;99.90;;;;;;4912685;29;20212;-75
2023/05/21 20:18:47;;;;;;;8.83;2.53;;;18.40;99.90;;;;;;4917892;29;20257;-76
2023/05/21 20:21:14;;;;;;;3.53;2.40;;;18.40;99.90;;;;;;4910078;29;20677;-75
2023/05/21 20:23:42;;;;;;;6.50;3.00;;;18.30;99.90;;;;;;4915229;29;20237;-75
2023/05/21 20:26:09;;;;;;;6.03;2.80;;;18.20;99.90;;;;;;4918438;29;20238;-76
2023/05/21 20:28:36;;;;;;;7.00;3.10;;;18.20;99.90;;;;;;4916605;29;20237;-76
2023/05/21 20:31:03;;;;;;;6.40;2.60;;;18.10;99.90;;;;;;4914754;29;20241;-76
2023/05/21 20:33:32;;;;;;;7.87;2.67;;;18.10;99.90;;;;;;4915797;29;20249;-76
2023/05/21 20:36:00;;;;;;;8.17;2.77;;;18.10;99.90;;;;;;4911106;29;20309;-75
2023/05/21 20:38:31;;;;;;;4.73;2.47;;;18.00;99.90;;;;;;4950680;23;20287;-75
2023/05/21 20:40:59;;;;;;;6.17;2.80;;;18.00;99.90;;;;;;4949983;28;20204;-75
2023/05/21 20:43:26;;;;;;;6.93;2.50;;;17.80;99.90;;;;;;4952100;28;20200;-75
2023/05/21 20:45:58;;;;;;;8.93;2.80;;;17.70;99.90;;;;;;4948968;28;20260;-75
2023/05/21 20:48:27;;;;;;;6.10;2.60;;;17.60;99.90;;;;;;4949249;28;20239;-76
2023/05/21 20:50:56;;;;;;;7.47;2.80;;;17.70;99.90;;;;;;4953393;28;20823;-76
2023/05/21 20:53:23;;;;;;;4.77;2.60;;;17.70;99.90;;;;;;4949136;28;20688;-75
2023/05/21 20:55:51;;;;;;;5.43;2.57;;;17.60;99.90;;;;;;4953914;28;20248;-75
2023/05/21 20:58:19;;;;;;;7.83;2.93;;;17.60;99.90;;;;;;4944703;28;20205;-74
2023/05/21 21:00:47;;;;;;;9.87;3.27;;;17.60;99.90;;;;;;4939011;28;20296;-75
2023/05/21 21:03:16;;;;;;;5.93;2.53;;;17.50;99.90;;;;;;4947148;28;20240;-75
2023/05/21 21:05:43;;;;;;;6.97;2.60;;;17.50;99.90;;;;;;4951420;28;20224;-75
2023/05/21 21:08:11;;;;;;;4.50;2.63;;;17.40;99.90;;;;;;4943469;28;20244;-75
2023/05/21 21:10:39;;;;;;;8.17;2.70;;;17.40;99.90;;;;;;4951726;28;20283;-75
2023/05/21 21:13:06;;;;;;;6.57;2.43;;;17.40;99.90;;;;;;4939338;28;20631;-75
2023/05/21 21:15:35;;;;;;;6.50;2.57;;;17.40;99.90;;;;;;4951505;28;20228;-75
2023/05/21 21:18:02;;;;;;;4.80;2.60;;;17.30;99.90;;;;;;4943078;28;20668;-75
2023/05/21 21:20:29;;;;;;;7.70;2.80;;;17.30;99.90;;;;;;4951249;28;20255;-75
2023/05/21 21:22:56;;;;;;;8.63;2.63;;;17.20;99.90;;;;;;4944973;28;20217;-75
2023/05/21 21:25:23;;;;;;;7.93;2.93;;;17.20;99.90;;;;;;4950921;28;20263;-75
2023/05/21 21:27:50;;;;;;;5.90;2.70;;;17.20;99.90;;;;;;4943701;28;20627;-75
2023/05/21 21:30:17;;;;;;;4.73;2.67;;;17.20;99.90;;;;;;4948507;28;20299;-75
2023/05/21 21:32:46;;;;;;;9.87;3.30;;;17.20;99.90;;;;;;4943787;28;20209;-75
2023/05/21 21:35:13;;;;;;;4.70;2.70;;;17.00;99.90;;;;;;4948055;28;20224;-75
2023/05/21 21:37:40;;;;;;;7.37;2.83;;;17.00;99.90;;;;;;4938627;28;20687;-75
